createdAt,value
2017-05-20T00:00:13.299Z,87.26
2017-05-20T00:00:53.910Z,87.26
2017-05-20T00:01:34.605Z,87.35
2017-05-20T00:02:15.127Z,87.16
2017-05-20T00:02:55.718Z,87.16
2017-05-20T00:03:36.304Z,87.16
2017-05-20T00:04:16.918Z,87.16
2017-05-20T00:04:57.491Z,87.26
2017-05-20T00:05:38.109Z,87.35
2017-05-20T00:06:18.706Z,87.35
2017-05-20T00:06:59.599Z,87.35
2017-05-20T00:07:40.164Z,86.98
2017-05-20T00:08:20.697Z,87.35
2017-05-20T00:09:01.207Z,87.35
2017-05-20T00:09:43.801Z,87.45
2017-05-20T00:10:24.332Z,87.45
2017-05-20T00:11:04.928Z,87.07
2017-05-20T00:11:45.443Z,87.54
2017-05-20T00:12:26.052Z,87.45
2017-05-20T00:13:06.651Z,87.45
2017-05-20T00:13:47.266Z,87.64
2017-05-20T00:14:27.753Z,87.54
2017-05-20T00:15:08.350Z,87.26
2017-05-20T00:15:48.908Z,87.64
2017-05-20T00:16:29.438Z,87.54
2017-05-20T00:17:10.045Z,87.35
2017-05-20T00:17:50.641Z,87.64
2017-05-20T00:18:31.219Z,87.64
2017-05-20T00:19:11.817Z,87.64
2017-05-20T00:19:52.418Z,87.45
2017-05-20T00:20:32.963Z,87.64
2017-05-20T00:21:13.573Z,87.64
2017-05-20T00:21:54.101Z,87.54
2017-05-20T00:22:34.673Z,87.64
2017-05-20T00:23:15.200Z,87.54
2017-05-20T00:23:55.753Z,87.35
2017-05-20T00:24:36.325Z,87.35
2017-05-20T00:25:16.825Z,87.35
2017-05-20T00:25:57.408Z,87.64
2017-05-20T00:26:37.952Z,87.45
2017-05-20T00:27:18.501Z,87.64
2017-05-20T00:27:59.050Z,87.64
2017-05-20T00:28:39.618Z,87.64
2017-05-20T00:29:20.151Z,87.64
2017-05-20T00:30:00.705Z,87.35
2017-05-20T00:30:42.314Z,87.64
2017-05-20T00:31:22.929Z,87.64
2017-05-20T00:32:03.473Z,87.54
2017-05-20T00:32:44.034Z,87.64
2017-05-20T00:33:25.658Z,87.45
2017-05-20T00:34:07.274Z,87.64
2017-05-20T00:34:47.798Z,87.35
2017-05-20T00:35:28.396Z,87.54
2017-05-20T00:36:08.921Z,87.26
2017-05-20T00:36:49.517Z,87.35
2017-05-20T00:37:30.037Z,87.35
2017-05-20T00:38:10.589Z,87.35
2017-05-20T00:38:51.212Z,87.35
2017-05-20T00:39:31.740Z,87.45
2017-05-20T00:40:12.328Z,87.45
2017-05-20T00:40:52.867Z,87.45
2017-05-20T00:41:33.428Z,87.54
2017-05-20T00:42:13.979Z,87.35
2017-05-20T00:42:54.526Z,87.54
2017-05-20T00:43:37.172Z,87.54
2017-05-20T00:44:18.722Z,87.35
2017-05-20T00:44:59.268Z,87.45
2017-05-20T00:45:39.883Z,87.35
2017-05-20T00:46:20.429Z,87.54
2017-05-20T00:47:01.048Z,87.45
2017-05-20T00:47:41.575Z,87.45
2017-05-20T00:48:22.173Z,87.26
2017-05-20T00:49:02.766Z,87.45
2017-05-20T00:49:48.291Z,87.35
2017-05-20T00:50:28.814Z,87.45
2017-05-20T00:51:09.411Z,87.45
2017-05-20T00:51:50.983Z,87.35
2017-05-20T00:52:32.570Z,87.35
2017-05-20T00:53:18.142Z,87.35
2017-05-20T00:53:59.710Z,87.26
2017-05-20T00:54:40.324Z,87.31
2017-05-20T00:55:20.932Z,87.31
2017-05-20T00:56:01.508Z,87.31
2017-05-20T00:56:42.021Z,87.26
2017-05-20T00:57:22.597Z,87.31
2017-05-20T00:58:04.155Z,87.31
2017-05-20T00:58:44.717Z,87.35
2017-05-20T00:59:26.258Z,87.31
2017-05-20T01:00:06.847Z,87.31
2017-05-20T01:00:48.390Z,87.31
2017-05-20T01:01:28.940Z,87.31
2017-05-20T01:02:10.566Z,87.21
2017-05-20T01:02:51.088Z,87.31
2017-05-20T01:03:31.599Z,87.21
2017-05-20T01:04:18.120Z,87.88
2017-05-20T01:05:00.703Z,87.02
2017-05-20T01:05:41.229Z,87.98
2017-05-20T01:06:22.838Z,87.98
2017-05-20T01:07:08.457Z,87.79
2017-05-20T01:07:49.053Z,87.98
2017-05-20T01:08:29.578Z,87.6
2017-05-20T01:09:11.192Z,87.98
2017-05-20T01:09:53.775Z,87.98
2017-05-20T01:10:34.299Z,87.88
2017-05-20T01:11:14.918Z,87.69
2017-05-20T01:12:02.098Z,87.5
2017-05-20T01:12:42.665Z,87.5
2017-05-20T01:13:23.195Z,87.4
2017-05-20T01:14:03.797Z,87.69
2017-05-20T01:14:44.336Z,87.6
2017-05-20T01:15:26.961Z,87.5
2017-05-20T01:16:07.504Z,87.69
2017-05-20T01:16:48.044Z,87.5
2017-05-20T01:17:33.609Z,87.98
2017-05-20T01:18:19.077Z,87.98
2017-05-20T01:19:00.674Z,87.88
2017-05-20T01:19:41.306Z,87.88
2017-05-20T01:20:21.852Z,87.79
2017-05-20T01:21:02.403Z,87.88
2017-05-20T01:21:44.024Z,87.69
2017-05-20T01:22:35.058Z,87.79
2017-05-20T01:23:28.626Z,87.55
2017-05-20T01:24:10.200Z,87.55
2017-05-20T01:24:52.806Z,87.65
2017-05-20T01:25:35.425Z,87.74
2017-05-20T01:26:17.037Z,87.74
2017-05-20T01:26:59.659Z,87.65
2017-05-20T01:27:40.179Z,87.55
2017-05-20T01:28:26.618Z,87.65
2017-05-20T01:29:08.245Z,88.22
2017-05-20T01:29:50.884Z,88.51
2017-05-20T01:30:32.450Z,88.51
2017-05-20T01:31:14.020Z,88.51
2017-05-20T01:31:55.597Z,88.51
2017-05-20T01:32:36.188Z,88.03
2017-05-20T01:33:18.749Z,88.03
2017-05-20T01:33:59.339Z,87.93
2017-05-20T01:34:39.965Z,88.22
2017-05-20T01:35:25.331Z,87.93
2017-05-20T01:36:05.997Z,88.03
2017-05-20T01:36:46.627Z,88.22
2017-05-20T01:37:27.165Z,87.93
2017-05-20T01:38:09.777Z,87.93
2017-05-20T01:38:50.340Z,87.93
2017-05-20T01:39:32.918Z,87.93
2017-05-20T01:40:13.440Z,88.03
2017-05-20T01:40:58.643Z,87.74
2017-05-20T01:41:51.093Z,87.84
2017-05-20T01:42:37.664Z,87.7
2017-05-20T01:43:20.279Z,87.98
2017-05-20T01:44:00.825Z,87.89
2017-05-20T01:44:42.392Z,87.98
2017-05-20T01:45:25.007Z,87.89
2017-05-20T01:46:06.613Z,88.03
2017-05-20T01:46:52.828Z,87.98
2017-05-20T01:47:33.347Z,88.08
2017-05-20T01:48:14.987Z,88.08
2017-05-20T01:48:55.563Z,87.79
2017-05-20T01:49:37.076Z,88.27
2017-05-20T01:50:17.593Z,88.18
2017-05-20T01:50:59.139Z,88.08
2017-05-20T01:51:40.651Z,87.98
2017-05-20T01:52:21.241Z,87.98
2017-05-20T01:53:03.834Z,88.08
2017-05-20T01:53:44.414Z,87.98
2017-05-20T01:54:25.026Z,87.98
2017-05-20T01:55:05.580Z,88.08
2017-05-20T01:55:46.151Z,87.98
2017-05-20T01:56:33.324Z,88.08
2017-05-20T01:57:13.840Z,88.08
2017-05-20T01:57:59.126Z,88.18
2017-05-20T01:58:39.745Z,88.27
2017-05-20T01:59:21.356Z,88.27
2017-05-20T02:00:02.265Z,88.08
2017-05-20T02:00:48.589Z,88.27
2017-05-20T02:01:31.228Z,88.27
2017-05-20T02:02:17.624Z,88.37
2017-05-20T02:02:58.158Z,88.46
2017-05-20T02:03:40.729Z,88.46
2017-05-20T02:04:23.353Z,88.46
2017-05-20T02:05:04.976Z,88.46
2017-05-20T02:05:45.574Z,88.46
2017-05-20T02:06:27.150Z,88.46
2017-05-20T02:07:07.699Z,88.46
2017-05-20T02:07:49.293Z,88.65
2017-05-20T02:08:30.848Z,88.27
2017-05-20T02:09:11.396Z,88.27
2017-05-20T02:09:51.968Z,88.18
2017-05-20T02:10:32.505Z,88.23
2017-05-20T02:11:13.048Z,88.27
2017-05-20T02:11:53.603Z,88.51
2017-05-20T02:12:35.181Z,88.37
2017-05-20T02:13:16.797Z,88.27
2017-05-20T02:13:57.363Z,88.46
2017-05-20T02:14:45.840Z,88.32
2017-05-20T02:15:27.434Z,88.42
2017-05-20T02:16:13.974Z,88.32
2017-05-20T02:16:55.569Z,88.42
2017-05-20T02:17:36.082Z,88.23
2017-05-20T02:18:17.726Z,88.23
2017-05-20T02:19:02.917Z,88.32
2017-05-20T02:19:43.517Z,88.51
2017-05-20T02:20:24.031Z,88.51
2017-05-20T02:21:04.624Z,88.13
2017-05-20T02:21:50.089Z,88.42
2017-05-20T02:22:30.638Z,88.04
2017-05-20T02:23:11.191Z,88.04
2017-05-20T02:23:51.752Z,88.04
2017-05-20T02:24:32.327Z,88.23
2017-05-20T02:25:12.859Z,87.94
2017-05-20T02:25:53.460Z,88.42
2017-05-20T02:26:34.032Z,88.23
2017-05-20T02:27:14.542Z,88.23
2017-05-20T02:27:56.173Z,88.23
2017-05-20T02:28:38.717Z,88.7
2017-05-20T02:29:21.252Z,88.7
2017-05-20T02:30:01.817Z,88.32
2017-05-20T02:30:42.353Z,88.42
2017-05-20T02:31:24.956Z,88.32
2017-05-20T02:32:05.501Z,88.32
2017-05-20T02:32:48.128Z,88.32
2017-05-20T02:33:29.675Z,88.32
2017-05-20T02:34:10.196Z,88.32
2017-05-20T02:34:55.613Z,88.51
2017-05-20T02:35:37.172Z,88.32
2017-05-20T02:36:17.669Z,88.13
2017-05-20T02:37:03.086Z,88.42
2017-05-20T02:37:44.710Z,88.42
2017-05-20T02:38:26.336Z,88.42
2017-05-20T02:39:06.855Z,88.13
2017-05-20T02:39:48.500Z,88.23
2017-05-20T02:40:30.101Z,88.42
2017-05-20T02:41:12.701Z,88.23
2017-05-20T02:41:53.249Z,88.23
2017-05-20T02:42:33.808Z,88.32
2017-05-20T02:43:16.388Z,88.42
2017-05-20T02:43:56.931Z,88.23
2017-05-20T02:44:37.536Z,88.42
2017-05-20T02:45:22.948Z,88.23
2017-05-20T02:46:03.499Z,88.7
2017-05-20T02:46:44.051Z,88.42
2017-05-20T02:47:24.601Z,88.79
2017-05-20T02:48:07.218Z,88.7
2017-05-20T02:48:47.772Z,88.99
2017-05-20T02:49:28.317Z,88.6
2017-05-20T02:50:19.398Z,88.7
2017-05-20T02:50:59.920Z,88.79
2017-05-20T02:51:40.453Z,89.18
2017-05-20T02:52:22.018Z,88.79
2017-05-20T02:53:02.539Z,88.79
2017-05-20T02:53:43.088Z,88.6
2017-05-20T02:54:23.722Z,89.27
2017-05-20T02:55:04.272Z,88.99
2017-05-20T02:55:44.858Z,89.08
2017-05-20T02:56:25.503Z,88.89
2017-05-20T02:57:08.091Z,89.27
2017-05-20T02:57:48.647Z,89.27
2017-05-20T02:58:29.175Z,89.27
2017-05-20T02:59:10.779Z,89.18
2017-05-20T02:59:51.322Z,89.18
2017-05-20T03:00:31.855Z,89.27
2017-05-20T03:01:12.402Z,89.37
2017-05-20T03:01:52.940Z,89.32
2017-05-20T03:02:33.501Z,89.37
2017-05-20T03:03:14.010Z,89.08
2017-05-20T03:03:54.529Z,89.08
2017-05-20T03:04:36.125Z,89.37
2017-05-20T03:05:16.720Z,89.37
2017-05-20T03:05:57.225Z,89.04
2017-05-20T03:06:37.841Z,89.04
2017-05-20T03:07:18.415Z,89.37
2017-05-20T03:07:59.045Z,88.89
2017-05-20T03:08:39.603Z,89.08
2017-05-20T03:09:20.144Z,88.99
2017-05-20T03:10:00.716Z,89.08
2017-05-20T03:10:41.277Z,88.79
2017-05-20T03:11:21.811Z,89.04
2017-05-20T03:12:02.353Z,88.99
2017-05-20T03:12:42.894Z,88.79
2017-05-20T03:13:23.464Z,89.04
2017-05-20T03:14:04.022Z,89.08
2017-05-20T03:14:44.668Z,88.66
2017-05-20T03:15:25.223Z,88.66
2017-05-20T03:16:06.765Z,89.14
2017-05-20T03:16:47.304Z,88.75
2017-05-20T03:17:27.872Z,88.56
2017-05-20T03:18:08.437Z,88.89
2017-05-20T03:18:48.975Z,88.85
2017-05-20T03:19:29.560Z,88.75
2017-05-20T03:20:10.166Z,88.85
2017-05-20T03:20:50.672Z,88.75
2017-05-20T03:21:31.295Z,88.85
2017-05-20T03:22:11.845Z,88.75
2017-05-20T03:22:52.398Z,88.66
2017-05-20T03:23:33.970Z,88.66
2017-05-20T03:24:14.521Z,88.66
2017-05-20T03:24:55.067Z,88.66
2017-05-20T03:25:35.622Z,88.85
2017-05-20T03:26:16.204Z,88.85
2017-05-20T03:26:56.813Z,89.04
2017-05-20T03:27:37.381Z,88.85
2017-05-20T03:28:17.930Z,88.85
2017-05-20T03:28:58.520Z,88.75
2017-05-20T03:29:39.105Z,88.94
2017-05-20T03:30:19.623Z,88.85
2017-05-20T03:31:00.229Z,88.85
2017-05-20T03:31:40.781Z,89.04
2017-05-20T03:32:21.310Z,88.85
2017-05-20T03:33:01.889Z,88.85
2017-05-20T03:33:42.448Z,88.85
2017-05-20T03:34:23.015Z,88.94
2017-05-20T03:35:03.662Z,88.85
2017-05-20T03:35:44.197Z,89.04
2017-05-20T03:36:24.701Z,89.04
2017-05-20T03:37:05.225Z,88.75
2017-05-20T03:37:45.864Z,88.56
2017-05-20T03:38:26.476Z,89.14
2017-05-20T03:39:07.001Z,88.66
2017-05-20T03:39:47.581Z,88.66
2017-05-20T03:40:28.219Z,88.94
2017-05-20T03:41:08.731Z,88.85
2017-05-20T03:41:49.352Z,88.85
2017-05-20T03:42:29.919Z,88.85
2017-05-20T03:43:10.527Z,88.75
2017-05-20T03:43:51.049Z,88.85
2017-05-20T03:44:31.652Z,88.66
2017-05-20T03:45:12.241Z,88.75
2017-05-20T03:45:52.825Z,88.85
2017-05-20T03:46:33.377Z,88.94
2017-05-20T03:47:13.958Z,88.85
2017-05-20T03:47:55.604Z,88.75
2017-05-20T03:48:36.157Z,89.04
2017-05-20T03:49:16.684Z,88.75
2017-05-20T03:49:57.302Z,89.04
2017-05-20T03:50:37.887Z,88.75
2017-05-20T03:51:18.469Z,89.04
2017-05-20T03:51:59.008Z,89.04
2017-05-20T03:52:39.569Z,89.04
2017-05-20T03:53:20.122Z,88.94
2017-05-20T03:54:00.665Z,88.94
2017-05-20T03:54:41.226Z,89.04
2017-05-20T03:55:21.774Z,89.04
2017-05-20T03:56:02.294Z,89.04
2017-05-20T03:56:42.908Z,89.14
2017-05-20T03:57:23.486Z,89.14
2017-05-20T03:58:04.074Z,88.94
2017-05-20T03:58:44.600Z,88.94
2017-05-20T03:59:25.191Z,88.94
2017-05-20T04:00:06.820Z,88.94
2017-05-20T04:00:47.401Z,88.94
2017-05-20T04:01:27.922Z,88.94
2017-05-20T04:02:08.548Z,88.94
2017-05-20T04:02:49.118Z,88.94
2017-05-20T04:03:31.658Z,88.75
2017-05-20T04:04:12.173Z,88.94
2017-05-20T04:04:52.784Z,88.94
2017-05-20T04:05:33.443Z,88.94
2017-05-20T04:06:13.956Z,89.23
2017-05-20T04:06:54.546Z,88.94
2017-05-20T04:07:35.161Z,88.75
2017-05-20T04:08:15.724Z,89.32
2017-05-20T04:08:56.263Z,89.04
2017-05-20T04:09:36.783Z,89.04
2017-05-20T04:10:17.389Z,89.04
2017-05-20T04:10:58.017Z,88.94
2017-05-20T04:11:38.538Z,88.99
2017-05-20T04:12:19.141Z,88.99
2017-05-20T04:12:59.742Z,88.99
2017-05-20T04:13:40.336Z,89.08
2017-05-20T04:14:20.902Z,89.27
2017-05-20T04:15:02.489Z,89.23
2017-05-20T04:15:43.072Z,88.89
2017-05-20T04:16:23.730Z,89.18
2017-05-20T04:17:04.274Z,89.27
2017-05-20T04:17:44.865Z,89.08
2017-05-20T04:18:26.463Z,89.18
2017-05-20T04:19:07.023Z,88.89
2017-05-20T04:19:47.666Z,89.18
2017-05-20T04:20:28.318Z,89.37
2017-05-20T04:21:08.892Z,88.89
2017-05-20T04:21:49.504Z,88.89
2017-05-20T04:22:30.022Z,89.32
2017-05-20T04:23:10.620Z,89.47
2017-05-20T04:23:51.219Z,88.99
2017-05-20T04:24:31.807Z,89.65
2017-05-20T04:25:12.354Z,89.65
2017-05-20T04:25:52.941Z,89.65
2017-05-20T04:26:33.551Z,89.47
2017-05-20T04:27:14.095Z,89.08
2017-05-20T04:27:54.682Z,89.65
2017-05-20T04:28:35.310Z,89.47
2017-05-20T04:29:15.854Z,89.65
2017-05-20T04:29:56.432Z,89.65
2017-05-20T04:30:37.071Z,89.37
2017-05-20T04:31:17.721Z,89.65
2017-05-20T04:31:59.315Z,89.65
2017-05-20T04:32:39.944Z,89.56
2017-05-20T04:33:20.595Z,89.37
2017-05-20T04:34:01.138Z,89.37
2017-05-20T04:34:41.742Z,89.37
2017-05-20T04:35:22.386Z,89.56
2017-05-20T04:36:03.027Z,89.37
2017-05-20T04:36:43.652Z,89.37
2017-05-20T04:37:24.206Z,89.47
2017-05-20T04:38:04.720Z,89.47
2017-05-20T04:38:45.349Z,89.47
2017-05-20T04:39:25.936Z,89.47
2017-05-20T04:40:06.513Z,89.18
2017-05-20T04:40:47.055Z,89.08
2017-05-20T04:41:27.611Z,89.47
2017-05-20T04:42:08.147Z,89.18
2017-05-20T04:42:48.739Z,89.47
2017-05-20T04:43:30.377Z,89.27
2017-05-20T04:44:11.046Z,89.18
2017-05-20T04:44:51.570Z,89.18
2017-05-20T04:45:32.183Z,89.65
2017-05-20T04:46:13.784Z,89.27
2017-05-20T04:46:54.395Z,89.65
2017-05-20T04:47:34.937Z,89.65
2017-05-20T04:48:15.494Z,89.47
2017-05-20T04:48:56.053Z,89.7
2017-05-20T04:49:36.600Z,89.51
2017-05-20T04:50:17.147Z,89.32
2017-05-20T04:50:58.728Z,89.61
2017-05-20T04:51:39.292Z,89.61
2017-05-20T04:52:19.930Z,89.47
2017-05-20T04:53:00.572Z,89.51
2017-05-20T04:53:41.130Z,89.27
2017-05-20T04:54:21.680Z,89.32
2017-05-20T04:55:02.271Z,89.51
2017-05-20T04:55:43.786Z,89.51
2017-05-20T04:56:24.437Z,89.51
2017-05-20T04:57:04.948Z,89.51
2017-05-20T04:57:45.537Z,89.51
2017-05-20T04:58:26.089Z,89.51
2017-05-20T04:59:06.627Z,89.51
2017-05-20T04:59:47.219Z,89.51
2017-05-20T05:00:27.833Z,89.41
2017-05-20T05:01:08.484Z,89.51
2017-05-20T05:01:49.050Z,89.61
2017-05-20T05:02:30.618Z,89.32
2017-05-20T05:03:12.188Z,89.22
2017-05-20T05:03:55.216Z,89.32
2017-05-20T05:04:35.758Z,89.32
2017-05-20T05:05:17.341Z,89.32
2017-05-20T05:05:57.873Z,89.32
2017-05-20T05:06:39.472Z,89.51
2017-05-20T05:07:25.653Z,89.26
2017-05-20T05:08:06.231Z,89.61
2017-05-20T05:08:48.781Z,89.61
2017-05-20T05:09:34.138Z,89.65
2017-05-20T05:10:21.675Z,89.46
2017-05-20T05:11:03.262Z,89.55
2017-05-20T05:11:44.841Z,89.17
2017-05-20T05:12:26.404Z,89.65
2017-05-20T05:13:13.724Z,89.26
2017-05-20T05:13:56.304Z,89.65
2017-05-20T05:14:36.844Z,89.65
2017-05-20T05:15:19.436Z,89.65
2017-05-20T05:16:01.081Z,89.46
2017-05-20T05:16:42.711Z,89.65
2017-05-20T05:17:23.220Z,89.46
2017-05-20T05:18:08.638Z,89.55
2017-05-20T05:18:49.277Z,89.65
2017-05-20T05:19:29.796Z,89.17
2017-05-20T05:20:11.417Z,88.98
2017-05-20T05:20:53.060Z,89.46
2017-05-20T05:21:33.573Z,89.65
2017-05-20T05:22:15.102Z,89.46
2017-05-20T05:22:57.703Z,89.26
2017-05-20T05:23:38.271Z,89.17
2017-05-20T05:24:18.852Z,89.17
2017-05-20T05:24:59.409Z,89.17
2017-05-20T05:25:39.950Z,89.07
2017-05-20T05:26:20.570Z,89.31
2017-05-20T05:27:01.107Z,89.22
2017-05-20T05:27:41.655Z,88.93
2017-05-20T05:28:22.248Z,89.12
2017-05-20T05:29:02.859Z,89.12
2017-05-20T05:29:43.379Z,89.03
2017-05-20T05:30:23.973Z,89.22
2017-05-20T05:31:04.574Z,89.22
2017-05-20T05:31:45.182Z,89.12
2017-05-20T05:32:25.787Z,88.93
2017-05-20T05:33:06.425Z,88.93
2017-05-20T05:33:47.035Z,88.79
2017-05-20T05:34:27.620Z,89.17
2017-05-20T05:35:08.289Z,88.79
2017-05-20T05:35:48.928Z,89.17
2017-05-20T05:36:29.538Z,89.03
2017-05-20T05:37:10.080Z,89.03
2017-05-20T05:37:50.634Z,89.03
2017-05-20T05:38:31.285Z,88.93
2017-05-20T05:39:11.804Z,88.84
2017-05-20T05:39:52.428Z,88.93
2017-05-20T05:40:32.935Z,88.93
2017-05-20T05:41:13.588Z,89.22
2017-05-20T05:41:55.269Z,89.03
2017-05-20T05:42:35.788Z,89.03
2017-05-20T05:43:16.447Z,89.22
2017-05-20T05:43:57.031Z,89.31
2017-05-20T05:44:37.628Z,89.4
2017-05-20T05:45:18.242Z,89.22
2017-05-20T05:45:58.777Z,88.74
2017-05-20T05:46:39.393Z,89.31
2017-05-20T05:47:19.979Z,88.84
2017-05-20T05:48:00.506Z,88.93
2017-05-20T05:48:41.059Z,88.84
2017-05-20T05:49:22.679Z,88.84
2017-05-20T05:50:03.271Z,88.36
2017-05-20T05:50:43.872Z,88.26
2017-05-20T05:51:24.397Z,88.55
2017-05-20T05:52:04.978Z,88.64
2017-05-20T05:52:45.548Z,88.84
2017-05-20T05:53:27.084Z,88.36
2017-05-20T05:54:07.664Z,88.12
2017-05-20T05:54:48.295Z,88.59
2017-05-20T05:55:28.945Z,88.4
2017-05-20T05:56:09.504Z,88.59
2017-05-20T05:56:50.053Z,88.69
2017-05-20T05:57:30.614Z,88.59
2017-05-20T05:58:11.161Z,88.59
2017-05-20T05:58:51.736Z,88.59
2017-05-20T05:59:32.358Z,88.21
2017-05-20T06:00:12.925Z,88.02
2017-05-20T06:00:54.495Z,88.4
2017-05-20T06:01:35.071Z,88.21
2017-05-20T06:02:15.695Z,88.31
2017-05-20T06:02:56.204Z,88.31
2017-05-20T06:03:36.840Z,88.12
2017-05-20T06:04:17.469Z,88.02
2017-05-20T06:04:58.048Z,88.31
2017-05-20T06:05:38.609Z,88.59
2017-05-20T06:06:19.145Z,87.64
2017-05-20T06:06:59.787Z,87.59
2017-05-20T06:07:40.308Z,87.97
2017-05-20T06:08:21.021Z,87.59
2017-05-20T06:09:01.676Z,87.21
2017-05-20T06:09:42.242Z,87.4
2017-05-20T06:10:23.007Z,87.02
2017-05-20T06:11:03.549Z,87.49
2017-05-20T06:11:44.179Z,87.21
2017-05-20T06:12:24.749Z,87.49
2017-05-20T06:13:05.259Z,87.06
2017-05-20T06:13:45.869Z,86.87
2017-05-20T06:14:26.858Z,86.96
2017-05-20T06:15:07.463Z,87.06
2017-05-20T06:15:48.124Z,87.06
2017-05-20T06:16:28.678Z,86.3
2017-05-20T06:17:09.265Z,86.3
2017-05-20T06:17:49.935Z,86.68
2017-05-20T06:18:30.539Z,86.68
2017-05-20T06:19:11.153Z,86.34
2017-05-20T06:19:51.747Z,85.96
2017-05-20T06:20:32.438Z,85.96
2017-05-20T06:21:12.978Z,85.77
2017-05-20T06:21:53.560Z,86.05
2017-05-20T06:22:35.104Z,86.15
2017-05-20T06:23:15.654Z,86.15
2017-05-20T06:23:56.213Z,85.96
2017-05-20T06:24:36.858Z,85.1
2017-05-20T06:25:18.585Z,85.1
2017-05-20T06:25:59.130Z,85.82
2017-05-20T06:26:39.794Z,85.34
2017-05-20T06:27:20.344Z,85.34
2017-05-20T06:28:00.943Z,85.15
2017-05-20T06:28:41.534Z,85.48
2017-05-20T06:29:22.185Z,85.34
2017-05-20T06:30:02.746Z,85.34
2017-05-20T06:30:43.287Z,85.15
2017-05-20T06:31:23.845Z,85.19
2017-05-20T06:32:04.470Z,85.19
2017-05-20T06:32:45.055Z,85.29
2017-05-20T06:33:25.682Z,84.81
2017-05-20T06:34:06.226Z,85
2017-05-20T06:34:46.812Z,84.72
2017-05-20T06:35:27.468Z,84.62
2017-05-20T06:36:08.086Z,84.23
2017-05-20T06:36:48.662Z,84.76
2017-05-20T06:37:29.268Z,84.19
2017-05-20T06:38:09.870Z,83.99
2017-05-20T06:38:50.446Z,83.37
2017-05-20T06:39:31.041Z,83.37
2017-05-20T06:40:11.599Z,83.17
2017-05-20T06:40:52.200Z,83.22
2017-05-20T06:41:32.833Z,82.35
2017-05-20T06:42:13.469Z,81.92
2017-05-20T06:42:54.033Z,82.11
2017-05-20T06:43:34.567Z,81.54
2017-05-20T06:44:15.112Z,81.67
2017-05-20T06:44:55.676Z,81.38
2017-05-20T06:45:36.261Z,80.81
2017-05-20T06:46:16.866Z,80.47
2017-05-20T06:46:57.382Z,79.99
2017-05-20T06:47:37.999Z,79.7
2017-05-20T06:48:18.582Z,79.7
2017-05-20T06:48:59.173Z,79.36
2017-05-20T06:49:39.685Z,78.97
2017-05-20T06:50:20.333Z,79.22
2017-05-20T06:51:00.873Z,78.84
2017-05-20T06:51:41.437Z,78.93
2017-05-20T06:52:22.000Z,78.74
2017-05-20T06:53:02.645Z,78.45
2017-05-20T06:53:43.236Z,78.45
2017-05-20T06:54:23.803Z,78.84
2017-05-20T06:55:04.446Z,78.74
2017-05-20T06:55:44.995Z,78.45
2017-05-20T06:56:25.497Z,78.36
2017-05-20T06:57:06.122Z,78.17
2017-05-20T06:57:46.759Z,78.13
2017-05-20T06:58:28.300Z,78.42
2017-05-20T06:59:08.820Z,78.22
2017-05-20T06:59:50.456Z,78.13
2017-05-20T07:00:30.989Z,78.13
2017-05-20T07:01:11.504Z,78.22
2017-05-20T07:01:52.111Z,77.94
2017-05-20T07:02:32.664Z,78.22
2017-05-20T07:03:13.259Z,78.13
2017-05-20T07:03:53.793Z,78.03
2017-05-20T07:04:34.409Z,77.75
2017-05-20T07:05:14.940Z,78.22
2017-05-20T07:05:56.543Z,78.22
2017-05-20T07:06:37.182Z,77.7
2017-05-20T07:07:17.754Z,77.99
2017-05-20T07:07:58.409Z,78.09
2017-05-20T07:08:39.971Z,77.51
2017-05-20T07:09:20.595Z,78.09
2017-05-20T07:10:01.137Z,77.8
2017-05-20T07:10:41.686Z,77.7
2017-05-20T07:11:22.239Z,77.61
2017-05-20T07:12:02.837Z,77.9
2017-05-20T07:12:43.491Z,77.23
2017-05-20T07:13:24.114Z,77.23
2017-05-20T07:14:04.763Z,77.28
2017-05-20T07:14:45.297Z,77
2017-05-20T07:15:25.877Z,77.76
2017-05-20T07:16:06.541Z,77.48
2017-05-20T07:16:47.181Z,77.76
2017-05-20T07:17:27.836Z,77.57
2017-05-20T07:18:08.357Z,77.67
2017-05-20T07:18:48.927Z,77.48
2017-05-20T07:19:29.446Z,77.92
2017-05-20T07:20:10.032Z,78.11
2017-05-20T07:20:50.684Z,78.11
2017-05-20T07:21:31.252Z,78.58
2017-05-20T07:22:11.856Z,78.36
2017-05-20T07:22:52.365Z,78.07
2017-05-20T07:23:32.964Z,78.45
2017-05-20T07:24:13.564Z,78.07
2017-05-20T07:24:54.167Z,78.83
2017-05-20T07:25:34.694Z,78.74
2017-05-20T07:26:15.330Z,78.93
2017-05-20T07:26:55.866Z,78.7
2017-05-20T07:27:36.470Z,78.51
2017-05-20T07:28:16.998Z,79.08
2017-05-20T07:28:57.594Z,79.08
2017-05-20T07:29:38.118Z,79.08
2017-05-20T07:30:18.703Z,79.65
2017-05-20T07:30:59.274Z,79.46
2017-05-20T07:31:39.893Z,79.56
2017-05-20T07:32:20.465Z,79.56
2017-05-20T07:33:01.122Z,79.36
2017-05-20T07:33:41.724Z,79.61
2017-05-20T07:34:22.306Z,79.56
2017-05-20T07:35:02.947Z,79.23
2017-05-20T07:35:43.482Z,79.36
2017-05-20T07:36:24.056Z,79.94
2017-05-20T07:37:04.591Z,80.13
2017-05-20T07:37:45.171Z,80.04
2017-05-20T07:38:25.789Z,79.94
2017-05-20T07:39:06.350Z,80.13
2017-05-20T07:39:46.887Z,80.13
2017-05-20T07:40:29.502Z,79.94
2017-05-20T07:41:10.129Z,80.04
2017-05-20T07:41:50.741Z,79.94
2017-05-20T07:42:31.348Z,80.32
2017-05-20T07:43:11.857Z,80.13
2017-05-20T07:43:52.511Z,80.22
2017-05-20T07:44:33.119Z,79.94
2017-05-20T07:46:46.571Z,79.85
2017-05-20T07:47:28.198Z,80.13
2017-05-20T07:48:08.789Z,79.94
2017-05-20T07:48:49.389Z,79.75
2017-05-20T07:49:29.892Z,79.27
2017-05-20T07:50:10.512Z,79.46
2017-05-20T07:50:52.076Z,79.46
2017-05-20T07:51:32.580Z,79.36
2017-05-20T07:52:13.149Z,79.46
2017-05-20T07:52:53.653Z,79.36
2017-05-20T07:53:34.266Z,79.17
2017-05-20T07:54:14.828Z,79.27
2017-05-20T07:54:55.348Z,79.36
2017-05-20T07:55:35.904Z,79.36
2017-05-20T07:56:16.421Z,79.46
2017-05-20T07:56:57.020Z,79.65
2017-05-20T07:57:37.681Z,79.56
2017-05-20T07:58:18.257Z,79.36
2017-05-20T07:58:58.885Z,79.65
2017-05-20T07:59:39.608Z,79.56
2017-05-20T08:00:20.212Z,79.46
2017-05-20T08:01:00.872Z,79.56
2017-05-20T08:01:41.673Z,79.46
2017-05-20T08:02:22.194Z,79.36
2017-05-20T08:03:02.825Z,79.56
2017-05-20T08:03:43.433Z,79.46
2017-05-20T08:04:25.041Z,79.85
2017-05-20T08:05:05.582Z,79.46
2017-05-20T08:05:46.221Z,79.46
2017-05-20T08:06:27.392Z,79.56
2017-05-20T08:07:07.960Z,79.65
2017-05-20T08:07:48.582Z,79.56
2017-05-20T08:08:29.142Z,79.56
2017-05-20T08:09:09.714Z,79.46
2017-05-20T08:09:50.301Z,79.65
2017-05-20T08:10:31.895Z,79.46
2017-05-20T08:11:12.484Z,79.46
2017-05-20T08:11:53.023Z,79.85
2017-05-20T08:12:33.613Z,78.99
2017-05-20T08:13:14.168Z,79.08
2017-05-20T08:13:54.763Z,79.27
2017-05-20T08:14:35.281Z,79.08
2017-05-20T08:15:15.933Z,78.79
2017-05-20T08:15:56.459Z,78.7
2017-05-20T08:16:37.111Z,78.79
2017-05-20T08:17:17.754Z,78.99
2017-05-20T08:17:58.332Z,78.99
2017-05-20T08:18:38.939Z,78.83
2017-05-20T08:19:19.534Z,78.55
2017-05-20T08:20:00.184Z,79.02
2017-05-20T08:20:40.920Z,78.74
2017-05-20T08:21:21.500Z,79.02
2017-05-20T08:22:02.166Z,78.93
2017-05-20T08:22:42.826Z,78.74
2017-05-20T08:23:23.301Z,79.02
2017-05-20T08:24:03.889Z,78.45
2017-05-20T08:24:44.579Z,78.07
2017-05-20T08:25:25.223Z,78.07
2017-05-20T08:26:05.838Z,78.45
2017-05-20T08:26:46.389Z,78.07
2017-05-20T08:27:26.935Z,78.07
2017-05-20T08:28:07.461Z,78.36
2017-05-20T08:28:48.013Z,78.26
2017-05-20T08:29:28.540Z,78.26
2017-05-20T08:30:09.123Z,78.16
2017-05-20T08:30:49.731Z,78.07
2017-05-20T08:31:30.377Z,78.07
2017-05-20T08:32:11.001Z,78.07
2017-05-20T08:32:52.613Z,78.16
2017-05-20T08:33:33.239Z,78.36
2017-05-20T08:34:13.884Z,78.26
2017-05-20T08:34:54.426Z,78.36
2017-05-20T08:35:34.990Z,78.39
2017-05-20T08:36:15.630Z,77.72
2017-05-20T08:36:56.223Z,77.92
2017-05-20T08:37:36.817Z,77.82
2017-05-20T08:38:17.360Z,77.92
2017-05-20T08:38:57.948Z,77.92
2017-05-20T08:39:38.533Z,77.72
2017-05-20T08:40:19.116Z,77.34
2017-05-20T08:40:59.647Z,77.25
2017-05-20T08:41:40.255Z,77.63
2017-05-20T08:42:20.846Z,77.82
2017-05-20T08:43:01.427Z,77.15
2017-05-20T08:43:41.971Z,76.96
2017-05-20T08:44:22.574Z,76.67
2017-05-20T08:45:05.190Z,76.86
2017-05-20T08:45:45.771Z,76.67
2017-05-20T08:46:26.335Z,76.67
2017-05-20T08:47:06.913Z,76.86
2017-05-20T08:47:48.492Z,77
2017-05-20T08:48:29.172Z,76.33
2017-05-20T08:49:09.775Z,76.33
2017-05-20T08:49:50.326Z,76.52
2017-05-20T08:50:31.939Z,76.23
2017-05-20T08:51:13.480Z,76.62